Thalassa — FNFP — position and weather

sailwx.info

Track history (hours):
 
Tides and Currents Weather Stations Pressure Air Temp Water Temp Dewpoint Dewpoint Depression Visibility Wind Speed Wind Dir Waves Ship Positions

Oceanographic research ship Thalassa (France & Spain)

Detailed information on ship capabilities available from University of Delaware's Ocean Information Center.

Last reported at 2019-Jun-19 20:58 UTC. Time now 2019-Jun-19 21:09 UTC.
Position N 43°06' E 005°53'.

Length 74 m; beam 15 m.

Type: Other ship. MMSI: 227297000.

Date/timePositionNaut miles runAvg speedWind from/ knotsBaromVisibWave heightAir tempDewpointWater temp
2019-Jun-19 20:58N 43°06' E 005°53'0 0.0
2019-Jun-19 20:28N 43°06' E 005°53'0 0.0
2019-Jun-19 19:58N 43°06' E 005°53'0 0.0
2019-Jun-19 19:28N 43°06' E 005°53'0 0.0
2019-Jun-19 18:58N 43°06' E 005°53'0 0.0
2019-Jun-19 18:28N 43°06' E 005°53'0 0.0
2019-Jun-19 17:58N 43°06' E 005°53'0 0.0
2019-Jun-19 17:28N 43°06' E 005°53'0 0.0
2019-Jun-19 16:58N 43°06' E 005°53'0 0.0
2019-Jun-19 16:28N 43°06' E 005°53'0 0.0
2019-Jun-19 15:58N 43°06' E 005°53'0 0.0
2019-Jun-19 15:28N 43°06' E 005°53'0 0.0
2019-Jun-19 14:58N 43°06' E 005°53'0 0.0
2019-Jun-19 14:28N 43°06' E 005°53'0 0.0
2019-Jun-19 13:58N 43°06' E 005°53'0 0.0
2019-Jun-19 13:28N 43°06' E 005°53'0 0.0
2019-Jun-19 12:58N 43°06' E 005°53'0 0.0
2019-Jun-19 12:28N 43°06' E 005°53'0 0.0
2019-Jun-19 11:58N 43°06' E 005°53'0 0.0
2019-Jun-19 11:28N 43°06' E 005°53'0 0.0
2019-Jun-19 10:58N 43°06' E 005°53'0 0.0
2019-Jun-19 10:28N 43°06' E 005°53'0 0.0
2019-Jun-19 09:58N 43°06' E 005°53'0 0.0
2019-Jun-19 09:28N 43°06' E 005°53'0 0.0
2019-Jun-19 08:58N 43°06' E 005°53'0 0.0
2019-Jun-19 08:28N 43°06' E 005°53'0 0.0
2019-Jun-19 07:58N 43°06' E 005°53'0 0.0
2019-Jun-19 07:25N 43°06' E 005°53'0 0.0
2019-Jun-19 06:58N 43°06' E 005°53'0 0.0
2019-Jun-19 06:28N 43°06' E 005°53'0 0.0
2019-Jun-19 05:58N 43°06' E 005°53'0 0.0
2019-Jun-19 05:28N 43°06' E 005°53'0 0.0
2019-Jun-19 04:58N 43°06' E 005°53'0 0.0
2019-Jun-19 04:25N 43°06' E 005°53'0 0.0
2019-Jun-19 03:58N 43°06' E 005°53'0 0.0
2019-Jun-19 03:28N 43°06' E 005°53'0 0.0
2019-Jun-19 02:58N 43°06' E 005°53'0 0.0
2019-Jun-19 01:58N 43°06' E 005°53'0 0.0
2019-Jun-19 01:28N 43°06' E 005°53'0 0.0
2019-Jun-19 00:58N 43°06' E 005°53'0 0.0
2019-Jun-19 00:28N 43°06' E 005°53'0 0.0
2019-Jun-18 23:58N 43°06' E 005°53'0 0.0
2019-Jun-18 23:28N 43°06' E 005°53'0 0.0
2019-Jun-18 22:58N 43°06' E 005°53'0 0.0
2019-Jun-18 22:28N 43°06' E 005°53'0 0.0
2019-Jun-18 21:58N 43°06' E 005°53'0 0.0
2019-Jun-18 21:28N 43°06' E 005°53'0 0.0
2019-Jun-18 20:58N 43°06' E 005°53'0 0.0
2019-Jun-18 20:28N 43°06' E 005°53'0 0.0
2019-Jun-18 19:58N 43°06' E 005°53'0 0.0
2019-Jun-18 19:28N 43°06' E 005°53'0 0.0
2019-Jun-18 18:58N 43°06' E 005°53'0 0.0
2019-Jun-18 18:28N 43°06' E 005°53'0 0.0
2019-Jun-18 17:55N 43°06' E 005°53'0 0.0
2019-Jun-18 17:28N 43°06' E 005°53'0 0.0
2019-Jun-18 16:58N 43°06' E 005°53'0 0.0
2019-Jun-18 16:28N 43°06' E 005°53'0 0.0
2019-Jun-18 15:58N 43°06' E 005°53'0 0.0
2019-Jun-18 15:28N 43°06' E 005°53'0 0.0
2019-Jun-18 14:58N 43°06' E 005°53'0 0.0
2019-Jun-18 14:28N 43°06' E 005°53'0 0.0
2019-Jun-18 13:58N 43°06' E 005°53'0 0.0
2019-Jun-18 13:30N 43°06' E 005°53'1 1.2
2019-Jun-18 13:00N 43°06' E 005°54'3 5.5
2019-Jun-18 12:29N 43°05' E 005°58'8 3.9
2019-Jun-18 10:28N 42°58' E 006°01'1 2.3
2019-Jun-18 09:54N 42°57' E 006°00'0 0.1
2019-Jun-18 07:26N 42°57' E 006°00'0 0.2
2019-Jun-18 06:50N 42°57' E 006°00'0 0.5
2019-Jun-18 06:16N 42°57' E 006°01'911.1
2019-Jun-18 05:30N 42°52' E 006°10'612.7
2019-Jun-18 05:00N 42°48' E 006°17'612.6
2019-Jun-18 04:31N 42°45' E 006°24'612.3
2019-Jun-18 04:01N 42°42' E 006°32'612.1
2019-Jun-18 03:30N 42°38' E 006°38'612.3
2019-Jun-18 03:00N 42°35' E 006°46'612.2
2019-Jun-18 02:31N 42°32' E 006°53'612.1
2019-Jun-18 02:00N 42°29' E 006°60'611.9
2019-Jun-18 01:30N 42°26' E 007°06'3 5.5
2019-Jun-18 01:00N 42°24' E 007°10'0 0.1
2019-Jun-18 00:31N 42°24' E 007°10'0 0.0
2019-Jun-18 00:00N 42°24' E 007°10'0 0.1
2019-Jun-17 23:30N 42°24' E 007°10'0 0.7
2019-Jun-17 22:59N 42°24' E 007°10'510.8
2019-Jun-17 22:30N 42°21' E 007°16'611.9
2019-Jun-17 22:01N 42°18' E 007°22'311.7
2019-Jun-17 21:48N 42°16' E 007°25'010.6
2019-Jun-17 21:45N 42°16' E 007°26'1 8.1
2019-Jun-17 21:37N 42°15' E 007°27'1 2.5
2019-Jun-17 21:20N 42°15' E 007°28'0 0.3
2019-Jun-17 21:00N 42°15' E 007°28'0 0.2
2019-Jun-17 20:29N 42°15' E 007°28'0 0.1
2019-Jun-17 20:00N 42°15' E 007°28'41 2.0
2019-Jun-16 23:30N 42°12' E 008°23'611.1
2019-Jun-16 23:00N 42°17' E 008°20'510.9
2019-Jun-16 22:31N 42°22' E 008°18'510.9
2019-Jun-16 22:01N 42°27' E 008°15'510.9
2019-Jun-16 21:30N 42°32' E 008°13'611.1
2019-Jun-16 21:00N 42°38' E 008°11'611.3
2019-Jun-16 20:30N 42°43' E 008°08'611.7
2019-Jun-16 20:01N 42°48' E 008°06'611.7
2019-Jun-16 19:31N 42°54' E 008°03'611.7
2019-Jun-16 19:00N 42°60' E 008°01'611.6
2019-Jun-16 18:30N 43°05' E 007°58'611.3
2019-Jun-16 18:01N 43°10' E 007°55'611.4
2019-Jun-16 17:31N 43°16' E 007°53'611.5
2019-Jun-16 17:01N 43°21' E 007°51'2 3.2
2019-Jun-16 16:30N 43°23' E 007°50'0 0.1
2019-Jun-16 16:01N 43°23' E 007°50'0 0.0
2019-Jun-16 15:31N 43°23' E 007°50'0 0.0
2019-Jun-16 15:01N 43°23' E 007°50'0 0.0
2019-Jun-16 14:31N 43°23' E 007°50'0 0.0
2019-Jun-16 14:01N 43°23' E 007°50'0 0.0
2019-Jun-16 13:30N 43°23' E 007°50'0 0.0
2019-Jun-16 13:01N 43°23' E 007°50'0 0.0
2019-Jun-16 12:31N 43°23' E 007°50'0 0.0
2019-Jun-16 12:01N 43°23' E 007°50'0 0.0
2019-Jun-16 11:30N 43°23' E 007°50'0 0.2
2019-Jun-16 11:00N 43°23' E 007°50'1 2.9
2019-Jun-16 10:31N 43°22' E 007°51'611.7
2019-Jun-16 10:00N 43°17' E 007°57'611.8
2019-Jun-16 09:31N 43°13' E 008°02'611.9
2019-Jun-16 09:01N 43°08' E 008°07'612.0
2019-Jun-16 08:31N 43°04' E 008°13'612.1
2019-Jun-16 08:01N 42°59' E 008°18'611.9
2019-Jun-16 07:30N 42°55' E 008°23'712.0
2019-Jun-16 06:57N 42°50' E 008°30'611.7
2019-Jun-16 06:29N 42°46' E 008°35'611.9
2019-Jun-16 05:58N 42°41' E 008°40'3 6.5
2019-Jun-16 05:30N 42°39' E 008°43'0 0.1
2019-Jun-16 04:58N 42°39' E 008°43'0 0.0
2019-Jun-16 04:30N 42°39' E 008°43'0 0.2
2019-Jun-16 04:00N 42°39' E 008°42'0 0.3
2019-Jun-16 03:30N 42°39' E 008°43'0 0.1
2019-Jun-16 02:58N 42°39' E 008°43'0 0.0
2019-Jun-16 02:31N 42°39' E 008°43'1 2.9
2019-Jun-16 02:01N 42°40' E 008°41'4 7.9
2019-Jun-16 01:31N 42°43' E 008°37'1 1.1
2019-Jun-16 01:00N 42°43' E 008°37'0 0.1
2019-Jun-16 00:31N 42°43' E 008°37'0 0.2
2019-Jun-16 00:00N 42°43' E 008°37'0 0.1
2019-Jun-15 23:30N 42°43' E 008°37'0 0.2
2019-Jun-15 23:01N 42°43' E 008°37'2 3.4
2019-Jun-15 22:31N 42°44' E 008°36'2 3.4
2019-Jun-15 22:01N 42°46' E 008°35'2 3.8
2019-Jun-15 21:31N 42°47' E 008°33'2 4.5
2019-Jun-15 21:01N 42°49' E 008°31'0 0.2
2019-Jun-15 20:31N 42°49' E 008°31'0 0.1
2019-Jun-15 20:01N 42°49' E 008°31'0 0.1
2019-Jun-15 19:30N 42°49' E 008°31'0 0.1
2019-Jun-15 19:01N 42°49' E 008°31'0 0.0
2019-Jun-15 18:31N 42°49' E 008°31'0 0.2
2019-Jun-15 18:01N 42°49' E 008°31'4 7.2
2019-Jun-15 17:30N 42°52' E 008°28'4 7.5
2019-Jun-15 17:01N 42°55' E 008°25'4 7.2
2019-Jun-15 16:31N 42°58' E 008°21'1 1.1
2019-Jun-15 16:01N 42°58' E 008°21'0 0.1
2019-Jun-15 15:31N 42°58' E 008°21'0 0.0
2019-Jun-15 15:00N 42°58' E 008°21'0 0.1
2019-Jun-15 14:30N 42°58' E 008°21'0 0.1
2019-Jun-15 14:00N 42°58' E 008°21'1 3.0
2019-Jun-15 13:30N 42°59' E 008°19'510.0
2019-Jun-15 13:01N 43°03' E 008°16'510.2
2019-Jun-15 12:31N 43°07' E 008°12'510.2
2019-Jun-15 12:01N 43°11' E 008°07'510.3
2019-Jun-15 11:30N 43°16' E 008°03'510.4
2019-Jun-15 11:00N 43°20' E 007°59'510.3
2019-Jun-15 10:31N 43°24' E 007°54'1 2.0
2019-Jun-15 10:00N 43°24' E 007°54'1 2.5
2019-Jun-15 09:31N 43°25' E 007°55'0 0.8
2019-Jun-15 09:01N 43°25' E 007°54'1 1.0
2019-Jun-15 08:30N 43°25' E 007°54'1 1.2
2019-Jun-15 08:01N 43°25' E 007°53'0 0.9
2019-Jun-15 07:31N 43°25' E 007°53'1 1.1
2019-Jun-15 07:00N 43°24' E 007°52'0 0.7
2019-Jun-15 06:31N 43°24' E 007°52'0 0.6
2019-Jun-15 06:00N 43°24' E 007°51'3 6.5
2019-Jun-15 05:30N 43°26' E 007°48'510.1
2019-Jun-15 05:01N 43°30' E 007°43'1 1.2
2019-Jun-15 04:30N 43°30' E 007°42'0 0.1
2019-Jun-15 04:00N 43°30' E 007°42'0 0.2
2019-Jun-15 03:30N 43°30' E 007°42'0 0.1
2019-Jun-15 03:00N 43°30' E 007°42'0 0.1
2019-Jun-15 02:30N 43°30' E 007°42'1 1.0
2019-Jun-15 02:00N 43°30' E 007°41'510.7
2019-Jun-15 01:30N 43°33' E 007°35'3 5.1
2019-Jun-15 01:00N 43°34' E 007°32'0 0.1
2019-Jun-15 00:30N 43°34' E 007°32'0 0.1
2019-Jun-15 00:00N 43°34' E 007°32'0 0.1
2019-Jun-14 23:30N 43°34' E 007°32'0 0.2
2019-Jun-14 23:00N 43°34' E 007°32'5 9.6
2019-Jun-14 22:30N 43°37' E 007°26'3 5.5
2019-Jun-14 22:00N 43°38' E 007°23'0 0.1
2019-Jun-14 21:30N 43°38' E 007°23'0 0.0
2019-Jun-14 21:01N 43°38' E 007°23'0 0.1
2019-Jun-14 20:30N 43°38' E 007°23'0 0.1
2019-Jun-14 20:00N 43°38' E 007°23'0 0.1
2019-Jun-14 19:30N 43°38' E 007°23'4 7.1
2019-Jun-14 19:01N 43°39' E 007°28'612.7
2019-Jun-14 18:31N 43°40' E 007°36'612.9
2019-Jun-14 18:01N 43°41' E 007°45'613.0
2019-Jun-14 17:31N 43°42' E 007°54'612.9
2019-Jun-14 17:00N 43°43' E 008°03'612.8
2019-Jun-14 16:31N 43°44' E 008°12'612.5
2019-Jun-14 16:01N 43°45' E 008°20'612.3
2019-Jun-14 15:31N 43°46' E 008°28'612.2
2019-Jun-14 15:01N 43°48' E 008°37'612.3
2019-Jun-14 14:30N 43°49' E 008°45'612.5
2019-Jun-14 14:00N 43°50' E 008°53'612.6
2019-Jun-14 13:30N 43°51' E 009°02'612.7
2019-Jun-14 13:00N 43°52' E 009°11'611.4
2019-Jun-14 12:30N 43°51' E 009°19'612.2
2019-Jun-14 12:00N 43°52' E 009°27'611.8
2019-Jun-14 11:30N 43°53' E 009°35'2 4.4
2019-Jun-14 11:00N 43°53' E 009°38'1 1.0
2019-Jun-14 10:30N 43°53' E 009°38'611.5
2019-Jun-14 10:00N 43°50' E 009°31'3 5.3
2019-Jun-14 09:30N 43°48' E 009°28'0 0.2
2019-Jun-14 09:00N 43°48' E 009°28'0 0.3
2019-Jun-14 08:30N 43°48' E 009°28'0 0.1
2019-Jun-14 08:00N 43°48' E 009°28'3 5.4
2019-Jun-14 07:30N 43°46' E 009°25'611.8
2019-Jun-14 07:00N 43°43' E 009°19'1 2.0
2019-Jun-14 06:30N 43°42' E 009°18'0 0.2
2019-Jun-14 06:00N 43°42' E 009°18'0 0.6
2019-Jun-14 05:31N 43°42' E 009°17'4 7.9
2019-Jun-14 05:00N 43°40' E 009°13'2 4.2
2019-Jun-14 04:30N 43°39' E 009°10'0 0.0
2019-Jun-14 04:00N 43°39' E 009°10'0 0.0
2019-Jun-14 03:30N 43°39' E 009°10'0 0.0
2019-Jun-14 03:01N 43°39' E 009°10'1 1.9
2019-Jun-14 02:30N 43°39' E 009°09'510.0
2019-Jun-14 02:00N 43°36' E 009°03'2 4.6
2019-Jun-14 01:30N 43°35' E 009°00'0 0.2
2019-Jun-14 01:00N 43°35' E 008°60'0 0.2
2019-Jun-14 00:31N 43°35' E 009°00'0 0.1
2019-Jun-14 00:00N 43°35' E 009°00'0 0.2
2019-Jun-13 23:31N 43°35' E 009°00'0 0.2
2019-Jun-13 23:00N 43°35' E 009°00'0 0.0
2019-Jun-13 22:30N 43°35' E 009°00'0 0.1
2019-Jun-13 22:00N 43°35' E 008°60'1 1.4
2019-Jun-13 21:30N 43°35' E 008°59'611.5
2019-Jun-13 21:00N 43°31' E 008°53'611.6
2019-Jun-13 20:30N 43°27' E 008°47'1 1.5
2019-Jun-13 20:00N 43°27' E 008°46'0 0.2
2019-Jun-13 19:30N 43°27' E 008°46'0 0.1
2019-Jun-13 19:00N 43°27' E 008°46'0 0.2
2019-Jun-13 18:31N 43°27' E 008°46'5 9.1
2019-Jun-13 18:00N 43°24' E 008°41'611.4
2019-Jun-13 17:30N 43°21' E 008°34'510.7
2019-Jun-13 17:00N 43°18' E 008°28'0 0.3
2019-Jun-13 16:30N 43°18' E 008°28'0 0.0
2019-Jun-13 16:00N 43°18' E 008°28'0 0.0
2019-Jun-13 15:30N 43°18' E 008°28'0 0.1
2019-Jun-13 15:00N 43°18' E 008°28'3 5.9
2019-Jun-13 14:30N 43°19' E 008°24'612.2
2019-Jun-13 14:00N 43°21' E 008°16'612.3
2019-Jun-13 13:30N 43°22' E 008°08'612.1
2019-Jun-13 13:00N 43°24' E 008°00'611.8
2019-Jun-13 12:30N 43°26' E 007°52'611.9
2019-Jun-13 12:00N 43°27' E 007°44'3 5.0
2019-Jun-13 11:30N 43°28' E 007°41'611.4
2019-Jun-13 11:00N 43°26' E 007°49'3 5.1
2019-Jun-13 10:30N 43°25' E 007°52'0 0.8
2019-Jun-13 10:00N 43°25' E 007°52'0 0.4
2019-Jun-13 09:30N 43°25' E 007°52'0 0.3
2019-Jun-13 09:00N 43°25' E 007°53'0 0.3
2019-Jun-13 08:30N 43°25' E 007°53'0 0.4
2019-Jun-13 08:00N 43°25' E 007°53'1 1.0
2019-Jun-13 07:31N 43°25' E 007°53'1 1.8
2019-Jun-13 07:00N 43°26' E 007°54'0 0.0
2019-Jun-13 06:30N 43°26' E 007°54'0 0.1
2019-Jun-13 06:00N 43°26' E 007°54'0 0.1
2019-Jun-13 05:30N 43°26' E 007°54'0 0.1
2019-Jun-13 05:00N 43°26' E 007°54'0 0.1
2019-Jun-13 04:30N 43°26' E 007°54'0 0.1
2019-Jun-13 04:00N 43°26' E 007°54'0 0.1
2019-Jun-13 03:30N 43°26' E 007°54'1 2.3
2019-Jun-13 03:00N 43°25' E 007°55'5 9.5
2019-Jun-13 02:30N 43°21' E 007°58'2 4.2
2019-Jun-13 02:00N 43°19' E 007°60'0 0.1
2019-Jun-13 01:30N 43°19' E 007°60'0 0.1
2019-Jun-13 01:00N 43°19' E 007°60'0 0.2
2019-Jun-13 00:30N 43°19' E 007°60'0 0.8
2019-Jun-13 00:00N 43°19' E 008°00'510.9
2019-Jun-12 23:30N 43°14' E 008°04'510.8
2019-Jun-12 23:00N 43°10' E 008°09'1 1.6
2019-Jun-12 22:30N 43°09' E 008°09'0 0.1
2019-Jun-12 22:00N 43°09' E 008°09'0 0.0
2019-Jun-12 21:30N 43°09' E 008°09'0 0.0
2019-Jun-12 21:00N 43°09' E 008°09'1 1.6
2019-Jun-12 20:30N 43°09' E 008°08'612.1
2019-Jun-12 20:00N 43°05' E 008°02'612.4
2019-Jun-12 19:30N 43°00' E 007°56'612.3
2019-Jun-12 19:00N 42°56' E 007°49'612.2
2019-Jun-12 18:30N 42°52' E 007°43'2 4.0
2019-Jun-12 18:00N 42°51' E 007°41'0 0.0
2019-Jun-12 17:30N 42°51' E 007°41'0 0.1
2019-Jun-12 17:00N 42°51' E 007°41'0 0.0
2019-Jun-12 16:30N 42°51' E 007°41'0 0.0
2019-Jun-12 16:00N 42°51' E 007°41'0 0.3
2019-Jun-12 15:30N 42°51' E 007°41'3 5.9
2019-Jun-12 15:00N 42°53' E 007°38'1 1.0
2019-Jun-12 14:30N 42°53' E 007°38'611.3
2019-Jun-12 14:00N 42°50' E 007°31'612.2
2019-Jun-12 13:30N 42°47' E 007°24'612.1
2019-Jun-12 13:00N 42°43' E 007°17'1012.2
2019-Jun-12 12:11N 42°38' E 007°06'1811.1
2019-Jun-12 10:35N 42°28' E 006°46'0 0.6
2019-Jun-12 10:30N 42°28' E 006°46'  
2019-Jun-09 08:23N 42°02' E 004°43'0 0.5
2019-Jun-09 07:58N 42°02' E 004°43'0 0.4
2019-Jun-09 07:22N 42°02' E 004°43'0 0.5
2019-Jun-09 07:00N 42°02' E 004°42'0 0.5
2019-Jun-09 06:30N 42°02' E 004°42'0 0.3
2019-Jun-09 05:59N 42°02' E 004°42'0 0.7
2019-Jun-09 05:30N 42°02' E 004°41'0 0.9
2019-Jun-09 04:59N 42°02' E 004°41'0 0.3
2019-Jun-09 04:00N 42°02' E 004°41'1 1.2
2019-Jun-09 03:30N 42°01' E 004°41'0 0.2
2019-Jun-09 03:00N 42°01' E 004°41'0 0.0
2019-Jun-09 02:26N 42°01' E 004°41'0 0.1
2019-Jun-09 01:36N 42°01' E 004°41'0 0.2
2019-Jun-09 01:30N 42°01' E 004°41'2 3.9
2019-Jun-09 01:00N 41°59' E 004°40'1 3.0
2019-Jun-09 00:30N 41°58' E 004°39'0 0.2
2019-Jun-09 00:00N 41°58' E 004°39'0 0.1
2019-Jun-08 23:30N 41°58' E 004°39'0 0.1
2019-Jun-08 22:53N 41°58' E 004°39'2 6.6
2019-Jun-08 22:30N 41°60' E 004°41'611.0
2019-Jun-08 22:00N 42°03' E 004°47'15 3.1
2019-Jun-08 17:12N 42°15' E 004°59'0 0.4
2019-Jun-08 17:00N 42°15' E 004°59'1010.8
2019-Jun-08 16:03N 42°23' E 005°07'111.9
2019-Jun-08 16:00N 42°24' E 005°07'611.8
2019-Jun-08 15:30N 42°29' E 005°12'611.7
2019-Jun-08 15:00N 42°33' E 005°17'611.5
2019-Jun-08 14:30N 42°38' E 005°21'611.6
2019-Jun-08 14:00N 42°43' E 005°25'19 3.2
2019-Jun-08 07:58N 42°59' E 005°40'8 9.2
2019-Jun-08 07:09N 43°01' E 005°50'212.3
2019-Jun-08 07:00N 43°02' E 005°52'5 9.6
2019-Jun-08 06:30N 43°05' E 005°57'3 6.4
2019-Jun-08 05:59N 43°06' E 005°53'0 0.0
2019-Jun-08 05:29N 43°06' E 005°53'0 0.0
2019-Jun-08 04:59N 43°06' E 005°53'0 0.0
2019-Jun-08 04:29N 43°06' E 005°53'0 0.0
2019-Jun-08 03:59N 43°06' E 005°53'0 0.0
2019-Jun-08 03:29N 43°06' E 005°53'0 0.0
2019-Jun-08 02:59N 43°06' E 005°53'0 0.0
2019-Jun-08 02:29N 43°06' E 005°53'0 0.0
2019-Jun-08 01:59N 43°06' E 005°53'0 0.0
2019-Jun-08 01:29N 43°06' E 005°53'0 0.0
2019-Jun-08 00:59N 43°06' E 005°53'0 0.0
2019-Jun-08 00:29N 43°06' E 005°53'0 0.0
2019-Jun-07 23:59N 43°06' E 005°53'0 0.0
2019-Jun-07 23:26N 43°06' E 005°53'0 0.0
2019-Jun-07 22:59N 43°06' E 005°53'0 0.0
2019-Jun-07 22:29N 43°06' E 005°53'0 0.0
2019-Jun-07 21:56N 43°06' E 005°53'0 0.0
2019-Jun-07 21:29N 43°06' E 005°53'0 0.0
2019-Jun-07 20:59N 43°06' E 005°53'0 0.0
2019-Jun-07 20:29N 43°06' E 005°53'0 0.0
2019-Jun-07 19:59N 43°06' E 005°53'0 0.0
2019-Jun-07 19:29N 43°06' E 005°53'0 0.0
2019-Jun-07 18:59N 43°06' E 005°53'0 0.0
2019-Jun-07 18:29N 43°06' E 005°53'0 0.0
2019-Jun-07 17:59N 43°06' E 005°53'0 0.0
2019-Jun-07 17:29N 43°06' E 005°53'0 0.0
2019-Jun-07 16:59N 43°06' E 005°53'0 0.0
2019-Jun-07 16:29N 43°06' E 005°53'0 0.0
2019-Jun-07 15:59N 43°06' E 005°53'0 0.0
2019-Jun-07 15:29N 43°06' E 005°53'0 0.0
2019-Jun-07 14:59N 43°06' E 005°53'0 0.0
2019-Jun-07 14:29N 43°06' E 005°53'0 0.0
2019-Jun-07 13:59N 43°06' E 005°53'0 0.0
2019-Jun-07 13:29N 43°06' E 005°53'0 0.0
2019-Jun-07 12:59N 43°06' E 005°53'0 0.0
2019-Jun-07 12:26N 43°06' E 005°53'0 0.0
2019-Jun-07 11:59N 43°06' E 005°53'0 0.0
2019-Jun-07 11:29N 43°06' E 005°53'0 0.0
2019-Jun-07 10:59N 43°06' E 005°53'0 0.0
2019-Jun-07 10:29N 43°06' E 005°53'0 0.0
2019-Jun-07 09:59N 43°06' E 005°53'0 0.0
2019-Jun-07 09:29N 43°06' E 005°53'0 0.0
2019-Jun-07 08:59N 43°06' E 005°53'0 0.0
2019-Jun-07 08:26N 43°06' E 005°53'0 0.0
2019-Jun-07 07:59N 43°06' E 005°53'0 0.0
2019-Jun-07 07:29N 43°06' E 005°53'0 0.0
2019-Jun-07 06:59N 43°06' E 005°53'0 0.0
2019-Jun-07 06:29N 43°06' E 005°53'0 0.0
2019-Jun-07 05:59N 43°06' E 005°53'0 0.0
2019-Jun-07 05:29N 43°06' E 005°53'0 0.0
2019-Jun-07 04:59N 43°06' E 005°53'0 0.0
2019-Jun-07 04:29N 43°06' E 005°53'0 0.0
2019-Jun-07 03:58N 43°06' E 005°53'0 0.0
2019-Jun-07 03:29N 43°06' E 005°53'0 0.0
2019-Jun-07 02:58N 43°06' E 005°53'0 0.0
2019-Jun-07 02:29N 43°06' E 005°53'0 0.0
2019-Jun-07 01:59N 43°06' E 005°53'0 0.0
2019-Jun-07 01:29N 43°06' E 005°53'0 0.0
2019-Jun-07 00:59N 43°06' E 005°53'0 0.0
2019-Jun-07 00:28N 43°06' E 005°53'0 0.0
2019-Jun-06 23:59N 43°06' E 005°53'0 0.0
2019-Jun-06 23:28N 43°06' E 005°53'0 0.0
2019-Jun-06 22:59N 43°06' E 005°53'  
Track history (hours):
 
Tides and Currents Weather Stations Pressure Air Temp Water Temp Dewpoint Dewpoint Depression Visibility Wind Speed Wind Dir Waves Ship Positions

Oceanographic research ship Thalassa (France & Spain)

Detailed information on ship capabilities available from University of Delaware's Ocean Information Center.

Last reported at 2019-Jun-19 20:58 UTC. Time now 2019-Jun-19 21:09 UTC.
Position N 43°06' E 005°53'.

Length 74 m; beam 15 m.

Type: Other ship. MMSI: 227297000.

Date/timePositionNaut miles runAvg speedWind from/ knotsBaromVisibWave heightAir tempDewpointWater temp
2019-Jun-19 20:58N 43°06' E 005°53'0 0.0
2019-Jun-19 20:28N 43°06' E 005°53'0 0.0
2019-Jun-19 19:58N 43°06' E 005°53'0 0.0
2019-Jun-19 19:28N 43°06' E 005°53'0 0.0
2019-Jun-19 18:58N 43°06' E 005°53'0 0.0
2019-Jun-19 18:28N 43°06' E 005°53'0 0.0
2019-Jun-19 17:58N 43°06' E 005°53'0 0.0
2019-Jun-19 17:28N 43°06' E 005°53'0 0.0
2019-Jun-19 16:58N 43°06' E 005°53'0 0.0
2019-Jun-19 16:28N 43°06' E 005°53'0 0.0
2019-Jun-19 15:58N 43°06' E 005°53'0 0.0
2019-Jun-19 15:28N 43°06' E 005°53'0 0.0
2019-Jun-19 14:58N 43°06' E 005°53'0 0.0
2019-Jun-19 14:28N 43°06' E 005°53'0 0.0
2019-Jun-19 13:58N 43°06' E 005°53'0 0.0
2019-Jun-19 13:28N 43°06' E 005°53'0 0.0
2019-Jun-19 12:58N 43°06' E 005°53'0 0.0
2019-Jun-19 12:28N 43°06' E 005°53'0 0.0
2019-Jun-19 11:58N 43°06' E 005°53'0 0.0
2019-Jun-19 11:28N 43°06' E 005°53'0 0.0
2019-Jun-19 10:58N 43°06' E 005°53'0 0.0
2019-Jun-19 10:28N 43°06' E 005°53'0 0.0
2019-Jun-19 09:58N 43°06' E 005°53'0 0.0
2019-Jun-19 09:28N 43°06' E 005°53'0 0.0
2019-Jun-19 08:58N 43°06' E 005°53'0 0.0
2019-Jun-19 08:28N 43°06' E 005°53'0 0.0
2019-Jun-19 07:58N 43°06' E 005°53'0 0.0
2019-Jun-19 07:25N 43°06' E 005°53'0 0.0
2019-Jun-19 06:58N 43°06' E 005°53'0 0.0
2019-Jun-19 06:28N 43°06' E 005°53'0 0.0
2019-Jun-19 05:58N 43°06' E 005°53'0 0.0
2019-Jun-19 05:28N 43°06' E 005°53'0 0.0
2019-Jun-19 04:58N 43°06' E 005°53'0 0.0
2019-Jun-19 04:25N 43°06' E 005°53'0 0.0
2019-Jun-19 03:58N 43°06' E 005°53'0 0.0
2019-Jun-19 03:28N 43°06' E 005°53'0 0.0
2019-Jun-19 02:58N 43°06' E 005°53'0 0.0
2019-Jun-19 01:58N 43°06' E 005°53'0 0.0
2019-Jun-19 01:28N 43°06' E 005°53'0 0.0
2019-Jun-19 00:58N 43°06' E 005°53'0 0.0
2019-Jun-19 00:28N 43°06' E 005°53'0 0.0
2019-Jun-18 23:58N 43°06' E 005°53'0 0.0
2019-Jun-18 23:28N 43°06' E 005°53'0 0.0
2019-Jun-18 22:58N 43°06' E 005°53'0 0.0
2019-Jun-18 22:28N 43°06' E 005°53'0 0.0
2019-Jun-18 21:58N 43°06' E 005°53'0 0.0
2019-Jun-18 21:28N 43°06' E 005°53'0 0.0
2019-Jun-18 20:58N 43°06' E 005°53'0 0.0
2019-Jun-18 20:28N 43°06' E 005°53'0 0.0
2019-Jun-18 19:58N 43°06' E 005°53'0 0.0
2019-Jun-18 19:28N 43°06' E 005°53'0 0.0
2019-Jun-18 18:58N 43°06' E 005°53'0 0.0
2019-Jun-18 18:28N 43°06' E 005°53'0 0.0
2019-Jun-18 17:55N 43°06' E 005°53'0 0.0
2019-Jun-18 17:28N 43°06' E 005°53'0 0.0
2019-Jun-18 16:58N 43°06' E 005°53'0 0.0
2019-Jun-18 16:28N 43°06' E 005°53'0 0.0
2019-Jun-18 15:58N 43°06' E 005°53'0 0.0
2019-Jun-18 15:28N 43°06' E 005°53'0 0.0
2019-Jun-18 14:58N 43°06' E 005°53'0 0.0
2019-Jun-18 14:28N 43°06' E 005°53'0 0.0
2019-Jun-18 13:58N 43°06' E 005°53'0 0.0
2019-Jun-18 13:30N 43°06' E 005°53'1 1.2
2019-Jun-18 13:00N 43°06' E 005°54'3 5.5
2019-Jun-18 12:29N 43°05' E 005°58'8 3.9
2019-Jun-18 10:28N 42°58' E 006°01'1 2.3
2019-Jun-18 09:54N 42°57' E 006°00'0 0.1
2019-Jun-18 07:26N 42°57' E 006°00'0 0.2
2019-Jun-18 06:50N 42°57' E 006°00'0 0.5
2019-Jun-18 06:16N 42°57' E 006°01'911.1
2019-Jun-18 05:30N 42°52' E 006°10'612.7
2019-Jun-18 05:00N 42°48' E 006°17'612.6
2019-Jun-18 04:31N 42°45' E 006°24'612.3
2019-Jun-18 04:01N 42°42' E 006°32'612.1
2019-Jun-18 03:30N 42°38' E 006°38'612.3
2019-Jun-18 03:00N 42°35' E 006°46'612.2
2019-Jun-18 02:31N 42°32' E 006°53'612.1
2019-Jun-18 02:00N 42°29' E 006°60'611.9
2019-Jun-18 01:30N 42°26' E 007°06'3 5.5
2019-Jun-18 01:00N 42°24' E 007°10'0 0.1
2019-Jun-18 00:31N 42°24' E 007°10'0 0.0
2019-Jun-18 00:00N 42°24' E 007°10'0 0.1
2019-Jun-17 23:30N 42°24' E 007°10'0 0.7
2019-Jun-17 22:59N 42°24' E 007°10'510.8
2019-Jun-17 22:30N 42°21' E 007°16'611.9
2019-Jun-17 22:01N 42°18' E 007°22'311.7
2019-Jun-17 21:48N 42°16' E 007°25'010.6
2019-Jun-17 21:45N 42°16' E 007°26'1 8.1
2019-Jun-17 21:37N 42°15' E 007°27'1 2.5
2019-Jun-17 21:20N 42°15' E 007°28'0 0.3
2019-Jun-17 21:00N 42°15' E 007°28'0 0.2
2019-Jun-17 20:29N 42°15' E 007°28'0 0.1
2019-Jun-17 20:00N 42°15' E 007°28'41 2.0
2019-Jun-16 23:30N 42°12' E 008°23'611.1
2019-Jun-16 23:00N 42°17' E 008°20'510.9
2019-Jun-16 22:31N 42°22' E 008°18'510.9
2019-Jun-16 22:01N 42°27' E 008°15'510.9
2019-Jun-16 21:30N 42°32' E 008°13'611.1
2019-Jun-16 21:00N 42°38' E 008°11'611.3
2019-Jun-16 20:30N 42°43' E 008°08'611.7
2019-Jun-16 20:01N 42°48' E 008°06'611.7
2019-Jun-16 19:31N 42°54' E 008°03'611.7
2019-Jun-16 19:00N 42°60' E 008°01'611.6
2019-Jun-16 18:30N 43°05' E 007°58'611.3
2019-Jun-16 18:01N 43°10' E 007°55'611.4
2019-Jun-16 17:31N 43°16' E 007°53'611.5
2019-Jun-16 17:01N 43°21' E 007°51'2 3.2
2019-Jun-16 16:30N 43°23' E 007°50'0 0.1
2019-Jun-16 16:01N 43°23' E 007°50'0 0.0
2019-Jun-16 15:31N 43°23' E 007°50'0 0.0
2019-Jun-16 15:01N 43°23' E 007°50'0 0.0
2019-Jun-16 14:31N 43°23' E 007°50'0 0.0
2019-Jun-16 14:01N 43°23' E 007°50'0 0.0
2019-Jun-16 13:30N 43°23' E 007°50'0 0.0
2019-Jun-16 13:01N 43°23' E 007°50'0 0.0
2019-Jun-16 12:31N 43°23' E 007°50'0 0.0
2019-Jun-16 12:01N 43°23' E 007°50'0 0.0
2019-Jun-16 11:30N 43°23' E 007°50'0 0.2
2019-Jun-16 11:00N 43°23' E 007°50'1 2.9
2019-Jun-16 10:31N 43°22' E 007°51'611.7
2019-Jun-16 10:00N 43°17' E 007°57'611.8
2019-Jun-16 09:31N 43°13' E 008°02'611.9
2019-Jun-16 09:01N 43°08' E 008°07'612.0
2019-Jun-16 08:31N 43°04' E 008°13'612.1
2019-Jun-16 08:01N 42°59' E 008°18'611.9
2019-Jun-16 07:30N 42°55' E 008°23'712.0
2019-Jun-16 06:57N 42°50' E 008°30'611.7
2019-Jun-16 06:29N 42°46' E 008°35'611.9
2019-Jun-16 05:58N 42°41' E 008°40'3 6.5
2019-Jun-16 05:30N 42°39' E 008°43'0 0.1
2019-Jun-16 04:58N 42°39' E 008°43'0 0.0
2019-Jun-16 04:30N 42°39' E 008°43'0 0.2
2019-Jun-16 04:00N 42°39' E 008°42'0 0.3
2019-Jun-16 03:30N 42°39' E 008°43'0 0.1
2019-Jun-16 02:58N 42°39' E 008°43'0 0.0
2019-Jun-16 02:31N 42°39' E 008°43'1 2.9
2019-Jun-16 02:01N 42°40' E 008°41'4 7.9
2019-Jun-16 01:31N 42°43' E 008°37'1 1.1
2019-Jun-16 01:00N 42°43' E 008°37'0 0.1
2019-Jun-16 00:31N 42°43' E 008°37'0 0.2
2019-Jun-16 00:00N 42°43' E 008°37'0 0.1
2019-Jun-15 23:30N 42°43' E 008°37'0 0.2
2019-Jun-15 23:01N 42°43' E 008°37'2 3.4
2019-Jun-15 22:31N 42°44' E 008°36'2 3.4
2019-Jun-15 22:01N 42°46' E 008°35'2 3.8
2019-Jun-15 21:31N 42°47' E 008°33'2 4.5
2019-Jun-15 21:01N 42°49' E 008°31'0 0.2
2019-Jun-15 20:31N 42°49' E 008°31'0 0.1
2019-Jun-15 20:01N 42°49' E 008°31'0 0.1
2019-Jun-15 19:30N 42°49' E 008°31'0 0.1
2019-Jun-15 19:01N 42°49' E 008°31'0 0.0
2019-Jun-15 18:31N 42°49' E 008°31'0 0.2
2019-Jun-15 18:01N 42°49' E 008°31'4 7.2
2019-Jun-15 17:30N 42°52' E 008°28'4 7.5
2019-Jun-15 17:01N 42°55' E 008°25'4 7.2
2019-Jun-15 16:31N 42°58' E 008°21'1 1.1
2019-Jun-15 16:01N 42°58' E 008°21'0 0.1
2019-Jun-15 15:31N 42°58' E 008°21'0 0.0
2019-Jun-15 15:00N 42°58' E 008°21'0 0.1
2019-Jun-15 14:30N 42°58' E 008°21'0 0.1
2019-Jun-15 14:00N 42°58' E 008°21'1 3.0
2019-Jun-15 13:30N 42°59' E 008°19'510.0
2019-Jun-15 13:01N 43°03' E 008°16'510.2
2019-Jun-15 12:31N 43°07' E 008°12'510.2
2019-Jun-15 12:01N 43°11' E 008°07'510.3
2019-Jun-15 11:30N 43°16' E 008°03'510.4
2019-Jun-15 11:00N 43°20' E 007°59'510.3
2019-Jun-15 10:31N 43°24' E 007°54'1 2.0
2019-Jun-15 10:00N 43°24' E 007°54'1 2.5
2019-Jun-15 09:31N 43°25' E 007°55'0 0.8
2019-Jun-15 09:01N 43°25' E 007°54'1 1.0
2019-Jun-15 08:30N 43°25' E 007°54'1 1.2
2019-Jun-15 08:01N 43°25' E 007°53'0 0.9
2019-Jun-15 07:31N 43°25' E 007°53'1 1.1
2019-Jun-15 07:00N 43°24' E 007°52'0 0.7
2019-Jun-15 06:31N 43°24' E 007°52'0 0.6
2019-Jun-15 06:00N 43°24' E 007°51'3 6.5
2019-Jun-15 05:30N 43°26' E 007°48'510.1
2019-Jun-15 05:01N 43°30' E 007°43'1 1.2
2019-Jun-15 04:30N 43°30' E 007°42'0 0.1
2019-Jun-15 04:00N 43°30' E 007°42'0 0.2
2019-Jun-15 03:30N 43°30' E 007°42'0 0.1
2019-Jun-15 03:00N 43°30' E 007°42'0 0.1
2019-Jun-15 02:30N 43°30' E 007°42'1 1.0
2019-Jun-15 02:00N 43°30' E 007°41'510.7
2019-Jun-15 01:30N 43°33' E 007°35'3 5.1
2019-Jun-15 01:00N 43°34' E 007°32'0 0.1
2019-Jun-15 00:30N 43°34' E 007°32'0 0.1
2019-Jun-15 00:00N 43°34' E 007°32'0 0.1
2019-Jun-14 23:30N 43°34' E 007°32'0 0.2
2019-Jun-14 23:00N 43°34' E 007°32'5 9.6
2019-Jun-14 22:30N 43°37' E 007°26'3 5.5
2019-Jun-14 22:00N 43°38' E 007°23'0 0.1
2019-Jun-14 21:30N 43°38' E 007°23'0 0.0
2019-Jun-14 21:01N 43°38' E 007°23'0 0.1
2019-Jun-14 20:30N 43°38' E 007°23'0 0.1
2019-Jun-14 20:00N 43°38' E 007°23'0 0.1
2019-Jun-14 19:30N 43°38' E 007°23'4 7.1
2019-Jun-14 19:01N 43°39' E 007°28'612.7
2019-Jun-14 18:31N 43°40' E 007°36'612.9
2019-Jun-14 18:01N 43°41' E 007°45'613.0
2019-Jun-14 17:31N 43°42' E 007°54'612.9
2019-Jun-14 17:00N 43°43' E 008°03'612.8
2019-Jun-14 16:31N 43°44' E 008°12'612.5
2019-Jun-14 16:01N 43°45' E 008°20'612.3
2019-Jun-14 15:31N 43°46' E 008°28'612.2
2019-Jun-14 15:01N 43°48' E 008°37'612.3
2019-Jun-14 14:30N 43°49' E 008°45'612.5
2019-Jun-14 14:00N 43°50' E 008°53'612.6
2019-Jun-14 13:30N 43°51' E 009°02'612.7
2019-Jun-14 13:00N 43°52' E 009°11'611.4
2019-Jun-14 12:30N 43°51' E 009°19'612.2
2019-Jun-14 12:00N 43°52' E 009°27'611.8
2019-Jun-14 11:30N 43°53' E 009°35'2 4.4
2019-Jun-14 11:00N 43°53' E 009°38'1 1.0
2019-Jun-14 10:30N 43°53' E 009°38'611.5
2019-Jun-14 10:00N 43°50' E 009°31'3 5.3
2019-Jun-14 09:30N 43°48' E 009°28'0 0.2
2019-Jun-14 09:00N 43°48' E 009°28'0 0.3
2019-Jun-14 08:30N 43°48' E 009°28'0 0.1
2019-Jun-14 08:00N 43°48' E 009°28'3 5.4
2019-Jun-14 07:30N 43°46' E 009°25'611.8
2019-Jun-14 07:00N 43°43' E 009°19'1 2.0
2019-Jun-14 06:30N 43°42' E 009°18'0 0.2
2019-Jun-14 06:00N 43°42' E 009°18'0 0.6
2019-Jun-14 05:31N 43°42' E 009°17'4 7.9
2019-Jun-14 05:00N 43°40' E 009°13'2 4.2
2019-Jun-14 04:30N 43°39' E 009°10'0 0.0
2019-Jun-14 04:00N 43°39' E 009°10'0 0.0
2019-Jun-14 03:30N 43°39' E 009°10'0 0.0
2019-Jun-14 03:01N 43°39' E 009°10'1 1.9
2019-Jun-14 02:30N 43°39' E 009°09'510.0
2019-Jun-14 02:00N 43°36' E 009°03'2 4.6
2019-Jun-14 01:30N 43°35' E 009°00'0 0.2
2019-Jun-14 01:00N 43°35' E 008°60'0 0.2
2019-Jun-14 00:31N 43°35' E 009°00'0 0.1
2019-Jun-14 00:00N 43°35' E 009°00'0 0.2
2019-Jun-13 23:31N 43°35' E 009°00'0 0.2
2019-Jun-13 23:00N 43°35' E 009°00'0 0.0
2019-Jun-13 22:30N 43°35' E 009°00'0 0.1
2019-Jun-13 22:00N 43°35' E 008°60'1 1.4
2019-Jun-13 21:30N 43°35' E 008°59'611.5
2019-Jun-13 21:00N 43°31' E 008°53'611.6
2019-Jun-13 20:30N 43°27' E 008°47'1 1.5
2019-Jun-13 20:00N 43°27' E 008°46'0 0.2
2019-Jun-13 19:30N 43°27' E 008°46'0 0.1
2019-Jun-13 19:00N 43°27' E 008°46'0 0.2
2019-Jun-13 18:31N 43°27' E 008°46'5 9.1
2019-Jun-13 18:00N 43°24' E 008°41'611.4
2019-Jun-13 17:30N 43°21' E 008°34'510.7
2019-Jun-13 17:00N 43°18' E 008°28'0 0.3
2019-Jun-13 16:30N 43°18' E 008°28'0 0.0
2019-Jun-13 16:00N 43°18' E 008°28'0 0.0
2019-Jun-13 15:30N 43°18' E 008°28'0 0.1
2019-Jun-13 15:00N 43°18' E 008°28'3 5.9
2019-Jun-13 14:30N 43°19' E 008°24'612.2
2019-Jun-13 14:00N 43°21' E 008°16'612.3
2019-Jun-13 13:30N 43°22' E 008°08'612.1
2019-Jun-13 13:00N 43°24' E 008°00'611.8
2019-Jun-13 12:30N 43°26' E 007°52'611.9
2019-Jun-13 12:00N 43°27' E 007°44'3 5.0
2019-Jun-13 11:30N 43°28' E 007°41'611.4
2019-Jun-13 11:00N 43°26' E 007°49'3 5.1
2019-Jun-13 10:30N 43°25' E 007°52'0 0.8
2019-Jun-13 10:00N 43°25' E 007°52'0 0.4
2019-Jun-13 09:30N 43°25' E 007°52'0 0.3
2019-Jun-13 09:00N 43°25' E 007°53'0 0.3
2019-Jun-13 08:30N 43°25' E 007°53'0 0.4
2019-Jun-13 08:00N 43°25' E 007°53'1 1.0
2019-Jun-13 07:31N 43°25' E 007°53'1 1.8
2019-Jun-13 07:00N 43°26' E 007°54'0 0.0
2019-Jun-13 06:30N 43°26' E 007°54'0 0.1
2019-Jun-13 06:00N 43°26' E 007°54'0 0.1
2019-Jun-13 05:30N 43°26' E 007°54'0 0.1
2019-Jun-13 05:00N 43°26' E 007°54'0 0.1
2019-Jun-13 04:30N 43°26' E 007°54'0 0.1
2019-Jun-13 04:00N 43°26' E 007°54'0 0.1
2019-Jun-13 03:30N 43°26' E 007°54'1 2.3
2019-Jun-13 03:00N 43°25' E 007°55'5 9.5
2019-Jun-13 02:30N 43°21' E 007°58'2 4.2
2019-Jun-13 02:00N 43°19' E 007°60'0 0.1
2019-Jun-13 01:30N 43°19' E 007°60'0 0.1
2019-Jun-13 01:00N 43°19' E 007°60'0 0.2
2019-Jun-13 00:30N 43°19' E 007°60'0 0.8
2019-Jun-13 00:00N 43°19' E 008°00'510.9
2019-Jun-12 23:30N 43°14' E 008°04'510.8
2019-Jun-12 23:00N 43°10' E 008°09'1 1.6
2019-Jun-12 22:30N 43°09' E 008°09'0 0.1
2019-Jun-12 22:00N 43°09' E 008°09'0 0.0
2019-Jun-12 21:30N 43°09' E 008°09'0 0.0
2019-Jun-12 21:00N 43°09' E 008°09'1 1.6
2019-Jun-12 20:30N 43°09' E 008°08'612.1
2019-Jun-12 20:00N 43°05' E 008°02'612.4
2019-Jun-12 19:30N 43°00' E 007°56'612.3
2019-Jun-12 19:00N 42°56' E 007°49'612.2
2019-Jun-12 18:30N 42°52' E 007°43'2 4.0
2019-Jun-12 18:00N 42°51' E 007°41'0 0.0
2019-Jun-12 17:30N 42°51' E 007°41'0 0.1
2019-Jun-12 17:00N 42°51' E 007°41'0 0.0
2019-Jun-12 16:30N 42°51' E 007°41'0 0.0
2019-Jun-12 16:00N 42°51' E 007°41'0 0.3
2019-Jun-12 15:30N 42°51' E 007°41'3 5.9
2019-Jun-12 15:00N 42°53' E 007°38'1 1.0
2019-Jun-12 14:30N 42°53' E 007°38'611.3
2019-Jun-12 14:00N 42°50' E 007°31'612.2
2019-Jun-12 13:30N 42°47' E 007°24'612.1
2019-Jun-12 13:00N 42°43' E 007°17'1012.2
2019-Jun-12 12:11N 42°38' E 007°06'1811.1
2019-Jun-12 10:35N 42°28' E 006°46'0 0.6
2019-Jun-12 10:30N 42°28' E 006°46'  
2019-Jun-09 08:23N 42°02' E 004°43'0 0.5
2019-Jun-09 07:58N 42°02' E 004°43'0 0.4
2019-Jun-09 07:22N 42°02' E 004°43'0 0.5
2019-Jun-09 07:00N 42°02' E 004°42'0 0.5
2019-Jun-09 06:30N 42°02' E 004°42'0 0.3
2019-Jun-09 05:59N 42°02' E 004°42'0 0.7
2019-Jun-09 05:30N 42°02' E 004°41'0 0.9
2019-Jun-09 04:59N 42°02' E 004°41'0 0.3
2019-Jun-09 04:00N 42°02' E 004°41'1 1.2
2019-Jun-09 03:30N 42°01' E 004°41'0 0.2
2019-Jun-09 03:00N 42°01' E 004°41'0 0.0
2019-Jun-09 02:26N 42°01' E 004°41'0 0.1
2019-Jun-09 01:36N 42°01' E 004°41'0 0.2
2019-Jun-09 01:30N 42°01' E 004°41'2 3.9
2019-Jun-09 01:00N 41°59' E 004°40'1 3.0
2019-Jun-09 00:30N 41°58' E 004°39'0 0.2
2019-Jun-09 00:00N 41°58' E 004°39'0 0.1
2019-Jun-08 23:30N 41°58' E 004°39'0 0.1
2019-Jun-08 22:53N 41°58' E 004°39'2 6.6
2019-Jun-08 22:30N 41°60' E 004°41'611.0
2019-Jun-08 22:00N 42°03' E 004°47'15 3.1
2019-Jun-08 17:12N 42°15' E 004°59'0 0.4
2019-Jun-08 17:00N 42°15' E 004°59'1010.8
2019-Jun-08 16:03N 42°23' E 005°07'111.9
2019-Jun-08 16:00N 42°24' E 005°07'611.8
2019-Jun-08 15:30N 42°29' E 005°12'611.7
2019-Jun-08 15:00N 42°33' E 005°17'611.5
2019-Jun-08 14:30N 42°38' E 005°21'611.6
2019-Jun-08 14:00N 42°43' E 005°25'19 3.2
2019-Jun-08 07:58N 42°59' E 005°40'8 9.2
2019-Jun-08 07:09N 43°01' E 005°50'212.3
2019-Jun-08 07:00N 43°02' E 005°52'5 9.6
2019-Jun-08 06:30N 43°05' E 005°57'3 6.4
2019-Jun-08 05:59N 43°06' E 005°53'0 0.0
2019-Jun-08 05:29N 43°06' E 005°53'0 0.0
2019-Jun-08 04:59N 43°06' E 005°53'0 0.0
2019-Jun-08 04:29N 43°06' E 005°53'0 0.0
2019-Jun-08 03:59N 43°06' E 005°53'0 0.0
2019-Jun-08 03:29N 43°06' E 005°53'0 0.0
2019-Jun-08 02:59N 43°06' E 005°53'0 0.0
2019-Jun-08 02:29N 43°06' E 005°53'0 0.0
2019-Jun-08 01:59N 43°06' E 005°53'0 0.0
2019-Jun-08 01:29N 43°06' E 005°53'0 0.0
2019-Jun-08 00:59N 43°06' E 005°53'0 0.0
2019-Jun-08 00:29N 43°06' E 005°53'0 0.0
2019-Jun-07 23:59N 43°06' E 005°53'0 0.0
2019-Jun-07 23:26N 43°06' E 005°53'0 0.0
2019-Jun-07 22:59N 43°06' E 005°53'0 0.0
2019-Jun-07 22:29N 43°06' E 005°53'0 0.0
2019-Jun-07 21:56N 43°06' E 005°53'0 0.0
2019-Jun-07 21:29N 43°06' E 005°53'0 0.0
2019-Jun-07 20:59N 43°06' E 005°53'0 0.0
2019-Jun-07 20:29N 43°06' E 005°53'0 0.0
2019-Jun-07 19:59N 43°06' E 005°53'0 0.0
2019-Jun-07 19:29N 43°06' E 005°53'0 0.0
2019-Jun-07 18:59N 43°06' E 005°53'0 0.0
2019-Jun-07 18:29N 43°06' E 005°53'0 0.0
2019-Jun-07 17:59N 43°06' E 005°53'0 0.0
2019-Jun-07 17:29N 43°06' E 005°53'0 0.0
2019-Jun-07 16:59N 43°06' E 005°53'0 0.0
2019-Jun-07 16:29N 43°06' E 005°53'0 0.0
2019-Jun-07 15:59N 43°06' E 005°53'0 0.0
2019-Jun-07 15:29N 43°06' E 005°53'0 0.0
2019-Jun-07 14:59N 43°06' E 005°53'0 0.0
2019-Jun-07 14:29N 43°06' E 005°53'0 0.0
2019-Jun-07 13:59N 43°06' E 005°53'0 0.0
2019-Jun-07 13:29N 43°06' E 005°53'0 0.0
2019-Jun-07 12:59N 43°06' E 005°53'0 0.0
2019-Jun-07 12:26N 43°06' E 005°53'0 0.0
2019-Jun-07 11:59N 43°06' E 005°53'0 0.0
2019-Jun-07 11:29N 43°06' E 005°53'0 0.0
2019-Jun-07 10:59N 43°06' E 005°53'0 0.0
2019-Jun-07 10:29N 43°06' E 005°53'0 0.0
2019-Jun-07 09:59N 43°06' E 005°53'0 0.0
2019-Jun-07 09:29N 43°06' E 005°53'0 0.0
2019-Jun-07 08:59N 43°06' E 005°53'0 0.0
2019-Jun-07 08:26N 43°06' E 005°53'0 0.0
2019-Jun-07 07:59N 43°06' E 005°53'0 0.0
2019-Jun-07 07:29N 43°06' E 005°53'0 0.0
2019-Jun-07 06:59N 43°06' E 005°53'0 0.0
2019-Jun-07 06:29N 43°06' E 005°53'0 0.0
2019-Jun-07 05:59N 43°06' E 005°53'0 0.0
2019-Jun-07 05:29N 43°06' E 005°53'0 0.0
2019-Jun-07 04:59N 43°06' E 005°53'0 0.0
2019-Jun-07 04:29N 43°06' E 005°53'0 0.0
2019-Jun-07 03:58N 43°06' E 005°53'0 0.0
2019-Jun-07 03:29N 43°06' E 005°53'0 0.0
2019-Jun-07 02:58N 43°06' E 005°53'0 0.0
2019-Jun-07 02:29N 43°06' E 005°53'0 0.0
2019-Jun-07 01:59N 43°06' E 005°53'0 0.0
2019-Jun-07 01:29N 43°06' E 005°53'0 0.0
2019-Jun-07 00:59N 43°06' E 005°53'0 0.0
2019-Jun-07 00:28N 43°06' E 005°53'0 0.0
2019-Jun-06 23:59N 43°06' E 005°53'0 0.0
2019-Jun-06 23:28N 43°06' E 005°53'0 0.0
2019-Jun-06 22:59N 43°06' E 005°53'  

Dump ship's entire track history